createdAt,value
2022-12-15T00:00:19.532Z,76.70
2022-12-15T00:03:04.984Z,76.60
2022-12-15T00:05:50.433Z,76.60
2022-12-15T00:08:36.324Z,76.60
2022-12-15T00:11:21.804Z,76.60
2022-12-15T00:14:07.271Z,76.50
2022-12-15T00:16:52.770Z,76.60
2022-12-15T00:19:38.222Z,76.60
2022-12-15T00:22:24.668Z,76.60
2022-12-15T00:25:10.213Z,76.60
2022-12-15T00:27:55.789Z,76.40
2022-12-15T00:30:41.326Z,76.30
2022-12-15T00:33:31.018Z,76.30
2022-12-15T00:36:19.649Z,76.20
2022-12-15T00:38:47.545Z,76.30
2022-12-15T00:41:17.541Z,76.10
2022-12-15T00:43:44.969Z,76.10
2022-12-15T00:46:30.463Z,76.20
2022-12-15T00:48:57.644Z,76.00
2022-12-15T00:51:42.986Z,76.00
2022-12-15T00:54:29.254Z,76.00
2022-12-15T00:57:14.600Z,76.00
2022-12-15T00:59:59.993Z,75.90
2022-12-15T01:02:45.610Z,75.90
2022-12-15T01:05:31.215Z,76.00
2022-12-15T01:08:18.929Z,76.00
2022-12-15T01:11:04.336Z,76.10
2022-12-15T01:13:50.179Z,76.10
2022-12-15T01:16:35.744Z,76.20
2022-12-15T01:19:20.919Z,76.20
2022-12-15T01:21:49.710Z,76.10
2022-12-15T01:24:16.506Z,76.10
2022-12-15T01:26:43.204Z,76.20
2022-12-15T01:29:09.958Z,76.20
2022-12-15T01:31:36.721Z,76.30
2022-12-15T01:34:03.472Z,76.20
2022-12-15T01:36:30.312Z,76.20
2022-12-15T01:38:57.009Z,76.10
2022-12-15T01:41:24.014Z,76.20
2022-12-15T01:43:50.811Z,76.00
2022-12-15T01:46:20.030Z,76.10
2022-12-15T01:48:59.927Z,76.10
2022-12-15T01:51:35.497Z,76.00
2022-12-15T01:54:08.144Z,76.00
2022-12-15T01:56:40.085Z,76.00
2022-12-15T01:59:11.649Z,76.00
2022-12-15T02:01:38.551Z,75.90
2022-12-15T02:04:05.432Z,75.90
2022-12-15T02:06:32.222Z,75.80
2022-12-15T02:09:00.728Z,75.80
2022-12-15T02:11:55.630Z,75.80
2022-12-15T02:14:46.785Z,76.60
2022-12-15T02:17:52.393Z,75.70
2022-12-15T02:20:43.634Z,75.70
2022-12-15T02:23:47.237Z,75.60
2022-12-15T02:26:28.394Z,75.60
2022-12-15T02:29:13.421Z,75.50
2022-12-15T02:32:02.666Z,75.40
2022-12-15T02:34:56.279Z,75.50
2022-12-15T02:37:32.886Z,75.50
2022-12-15T02:39:59.941Z,75.40
2022-12-15T02:42:29.605Z,75.40
2022-12-15T02:45:08.534Z,76.10
2022-12-15T02:48:08.693Z,75.40
2022-12-15T02:50:48.860Z,75.50
2022-12-15T02:54:02.424Z,75.50
2022-12-15T02:56:34.612Z,75.50
2022-12-15T02:59:31.848Z,75.60
2022-12-15T03:02:03.601Z,75.60
2022-12-15T03:04:33.781Z,75.60
2022-12-15T03:07:04.687Z,75.70
2022-12-15T03:09:32.435Z,75.90
2022-12-15T03:11:59.533Z,75.90
2022-12-15T03:14:26.580Z,75.90
2022-12-15T03:16:54.575Z,75.90
2022-12-15T03:19:21.605Z,75.90
2022-12-15T03:21:48.349Z,76.00
2022-12-15T03:24:15.078Z,75.90
2022-12-15T03:26:42.132Z,75.80
2022-12-15T03:29:08.855Z,75.90
2022-12-15T03:31:36.074Z,75.90
2022-12-15T03:34:02.833Z,75.80
2022-12-15T03:36:29.533Z,75.80
2022-12-15T03:38:56.230Z,75.80
2022-12-15T03:41:22.945Z,75.70
2022-12-15T03:43:49.828Z,75.70
2022-12-15T03:46:17.275Z,75.70
2022-12-15T03:48:44.109Z,75.70
2022-12-15T03:51:10.967Z,75.60
2022-12-15T03:53:38.057Z,75.60
2022-12-15T03:56:04.929Z,75.60
2022-12-15T03:58:31.643Z,75.60
2022-12-15T04:00:58.460Z,75.60
2022-12-15T04:03:25.353Z,75.60
2022-12-15T04:05:52.076Z,75.60
2022-12-15T04:08:18.836Z,75.50
2022-12-15T04:10:45.638Z,75.60
2022-12-15T04:13:12.494Z,75.50
2022-12-15T04:15:40.761Z,75.40
2022-12-15T04:18:10.135Z,75.50
2022-12-15T04:20:38.513Z,75.50
2022-12-15T04:23:07.781Z,76.00
2022-12-15T04:25:53.567Z,75.70
2022-12-15T04:28:39.167Z,75.70
2022-12-15T04:31:30.644Z,75.70
2022-12-15T04:34:22.650Z,75.70
2022-12-15T04:37:09.959Z,75.70
2022-12-15T04:39:58.210Z,75.50
2022-12-15T04:42:44.178Z,75.70
2022-12-15T04:45:31.198Z,75.90
2022-12-15T04:48:17.676Z,75.80
2022-12-15T04:51:03.148Z,75.80
2022-12-15T04:53:48.287Z,75.90
2022-12-15T04:56:34.907Z,75.90
2022-12-15T04:59:20.680Z,75.80
2022-12-15T05:02:06.546Z,76.00
2022-12-15T05:04:52.449Z,76.10
2022-12-15T05:07:37.934Z,76.00
2022-12-15T05:10:24.489Z,76.20
2022-12-15T05:13:09.987Z,76.20
2022-12-15T05:15:55.645Z,76.40
2022-12-15T05:18:41.266Z,76.60
2022-12-15T05:21:26.824Z,76.40
2022-12-15T05:24:12.198Z,76.40
2022-12-15T05:26:57.562Z,76.30
2022-12-15T05:29:43.040Z,76.40
2022-12-15T05:32:09.832Z,76.70
2022-12-15T05:34:37.951Z,76.70
2022-12-15T05:37:07.296Z,76.60
2022-12-15T05:39:34.400Z,76.60
2022-12-15T05:42:01.416Z,76.60
2022-12-15T05:44:28.786Z,76.60
2022-12-15T05:46:55.731Z,76.60
2022-12-15T05:49:23.340Z,76.50
2022-12-15T05:51:50.514Z,76.40
2022-12-15T05:54:19.049Z,76.40
2022-12-15T05:56:46.897Z,76.40
2022-12-15T05:59:19.076Z,76.40
2022-12-15T06:01:46.057Z,77.20
2022-12-15T06:04:13.377Z,76.30
2022-12-15T06:06:41.143Z,76.20
2022-12-15T06:09:08.392Z,76.20
2022-12-15T06:11:35.254Z,76.30
2022-12-15T06:14:01.949Z,76.30
2022-12-15T06:16:29.240Z,76.30
2022-12-15T06:18:59.226Z,76.30
2022-12-15T06:21:29.081Z,76.30
2022-12-15T06:23:56.838Z,76.30
2022-12-15T06:26:25.515Z,76.30
2022-12-15T06:28:54.784Z,76.30
2022-12-15T06:31:23.012Z,76.20
2022-12-15T06:33:55.988Z,76.20
2022-12-15T06:36:26.476Z,76.20
2022-12-15T06:38:53.152Z,76.00
2022-12-15T06:41:21.600Z,76.10
2022-12-15T06:43:53.170Z,76.00
2022-12-15T06:46:20.477Z,76.00
2022-12-15T06:48:47.976Z,76.00
2022-12-15T06:51:17.388Z,75.90
2022-12-15T06:53:54.260Z,75.80
2022-12-15T06:56:33.124Z,75.70
2022-12-15T06:59:02.133Z,76.10
2022-12-15T07:01:29.844Z,75.60
2022-12-15T07:04:00.205Z,75.10
2022-12-15T07:06:28.663Z,74.60
2022-12-15T07:08:56.825Z,74.10
2022-12-15T07:11:23.854Z,73.90
2022-12-15T07:13:52.988Z,73.50
2022-12-15T07:16:21.464Z,73.30
2022-12-15T07:18:48.662Z,73.20
2022-12-15T07:21:15.856Z,73.10
2022-12-15T07:23:58.551Z,72.90
2022-12-15T07:26:26.276Z,72.90
2022-12-15T07:28:54.038Z,72.60
2022-12-15T07:31:21.778Z,72.60
2022-12-15T07:33:48.792Z,72.60
2022-12-15T07:36:15.905Z,72.50
2022-12-15T07:38:42.863Z,72.40
2022-12-15T07:41:10.343Z,72.30
2022-12-15T07:43:38.128Z,72.20
2022-12-15T07:46:05.851Z,72.10
2022-12-15T07:48:33.240Z,72.10
2022-12-15T07:51:11.086Z,72.00
2022-12-15T07:53:42.313Z,71.40
2022-12-15T07:56:10.055Z,71.20
2022-12-15T07:58:38.323Z,71.00
2022-12-15T08:01:08.591Z,70.80
2022-12-15T08:03:37.301Z,70.60
2022-12-15T08:06:05.806Z,70.50
2022-12-15T08:08:34.091Z,70.30
2022-12-15T08:11:09.277Z,70.10
2022-12-15T08:16:23.591Z,70.10
2022-12-15T08:18:50.396Z,70.10
2022-12-15T08:21:17.724Z,70.00
2022-12-15T08:23:45.118Z,69.80
2022-12-15T08:26:14.530Z,69.90
2022-12-15T08:28:41.881Z,69.70
2022-12-15T08:31:12.303Z,69.80
2022-12-15T08:33:39.772Z,69.60
2022-12-15T08:36:09.245Z,69.90
2022-12-15T08:38:38.636Z,69.50
2022-12-15T08:41:13.962Z,69.50
2022-12-15T08:43:47.496Z,69.50
2022-12-15T08:46:26.296Z,69.50
2022-12-15T08:48:53.510Z,69.50
2022-12-15T08:51:22.445Z,69.50
2022-12-15T08:53:49.555Z,69.40
2022-12-15T08:56:19.034Z,69.40
2022-12-15T08:58:47.271Z,70.40
2022-12-15T09:01:23.956Z,69.50
2022-12-15T09:03:56.567Z,69.40
2022-12-15T09:06:29.204Z,69.60
2022-12-15T09:08:57.497Z,69.50
2022-12-15T09:11:25.553Z,69.70
2022-12-15T09:13:52.298Z,69.60
2022-12-15T09:16:19.863Z,69.80
2022-12-15T09:18:52.932Z,70.30
2022-12-15T09:21:23.045Z,70.40
2022-12-15T09:23:51.968Z,70.40
2022-12-15T09:26:20.757Z,70.40
2022-12-15T09:28:50.317Z,70.50
2022-12-15T09:31:21.926Z,70.80
2022-12-15T09:33:50.277Z,66.50
2022-12-15T09:36:17.287Z,59.80
2022-12-15T09:38:44.650Z,59.80
2022-12-15T09:41:14.798Z,59.50
